Cartagena, Colombia

3:35 AM COT on November 27, 2014 (GMT -0500)
Rafael Nunez | Change Station
CLOSE
Current Station
Airport
Location: Cartagena,
Elevation: 39 ft
Nearby Weather Stations

Elev 39 ft 10.45 °N, 75.52 °W | Updated 35 minutes ago

Partly Cloudy
Partly Cloudy
79 °F
Feels Like 79 °F
N
4
Wind Variable Wind from ESE

Today
High -- | Low -- °F
--% Chance of Precip.
Yesterday
High -- | Low -- °F
Precip. -- in
6:02 AM 5:37 PM
Waxing Crescent, 27% visible
Pressure 29.78 in
Visibility 6.2 miles
Clouds Few 2000 ft
Dew Point 77 °F
Humidity 94%
Rainfall 0.00 in
Snow Depth Not available.
UV 0 out of 12
Pollen Not available.
Air Quality Not available.
Flu Activity Not available.
METAR SKCG 270800Z 11003KT 9999 FEW020 26/25 A2978

More Conditions Fewer Conditions

Pressure 29.78 in
Visibility 6.2 miles
Clouds Few 2000 ft
Dew Point 77 °F
Humidity 94%
Rainfall 0.00 in
Snow Depth Not available.
UV 0 out of 12
Pollen Not available.
Air Quality Not available.
Flu Activity Not available.
METAR SKCG 270800Z 11003KT 9999 FEW020 26/25 A2978

More Conditions Fewer Conditions

10-Day Weather Forecast

Almanac

Astronomy

Nov. 27, 2014 Rise Set
Actual Time
Civil Twilight
Nautical Twilight
Astronomical Twilight
Moon
Length of Visible Light
Length of Day
Tomorrow will be .
, % of the Moon is Illuminated

Today's Extremes

Country Highs Country Lows

Community

WunderPhotos

Upload Photos

1,773,965 photos uploaded!

WunderBlogs® & News

Nearby

Air Quality

  Air Quality AQ Index Pollutant
Not available.

Snow Depth

Station Depth Elevation

Earthquake Activity

City Distance Mag. Time & Date
Minimum magnitude displayed is 2.5.

Coastal Water Temperatures

Place Temperature

Nearby Weather Stations